Aviation Digital Data Service (ADDS)

Output produced by METARs form (0719 UTC 30 August 2016)
found at http://aviationweather.gov/adds/metars/
 
KGSP 300538Z 3006/3106 03005KT P6SM FEW150 
     FM301700 05007KT P6SM FEW150 
     FM310100 05003KT P6SM FEW150